createdAt,value
2019-05-23T08:04:33.410Z,100101.26
2019-05-23T08:07:10.345Z,100096.91
2019-05-23T08:09:43.248Z,100096.86
2019-05-23T08:12:16.987Z,100099.05
2019-05-23T08:14:50.577Z,100101.77
2019-05-23T08:17:26.809Z,100095.63
2019-05-23T08:20:01.660Z,100103.23
2019-05-23T08:22:35.194Z,100107.70
2019-05-23T08:25:11.821Z,100099.08
2019-05-23T08:27:48.857Z,100102.83
2019-05-23T08:30:23.181Z,100100.66
2019-05-23T08:33:07.054Z,100099.98
2019-05-23T08:35:43.762Z,100097.61
2019-05-23T08:38:19.784Z,100095.81
2019-05-23T08:40:53.488Z,100097.32
2019-05-23T08:43:29.383Z,100098.20
2019-05-23T08:46:03.652Z,100092.45
2019-05-23T08:48:40.625Z,100086.26
2019-05-23T08:51:17.103Z,100092.89
2019-05-23T08:53:50.387Z,100081.23
2019-05-23T08:56:29.645Z,100085.02
2019-05-23T08:59:08.915Z,100096.53
2019-05-23T09:01:42.618Z,100090.11
2019-05-23T09:04:18.673Z,100097.50
2019-05-23T09:06:52.166Z,100099.70
2019-05-23T09:09:31.676Z,100084.56
2019-05-23T09:12:13.779Z,100083.29
2019-05-23T09:14:50.959Z,100082.06
2019-05-23T09:17:24.491Z,100077.41
2019-05-23T09:19:59.167Z,100075.61
2019-05-23T09:22:33.021Z,100076.79
2019-05-23T09:25:08.844Z,100075.39
2019-05-23T09:27:41.991Z,100072.70
2019-05-23T09:30:28.554Z,100068.13
2019-05-23T09:33:01.695Z,100073.31
2019-05-23T09:35:40.531Z,100070.50
2019-05-23T09:38:32.453Z,100063.86
2019-05-23T09:41:09.158Z,100071.63
2019-05-23T09:43:42.900Z,100074.28
2019-05-23T09:46:18.425Z,100069.03
2019-05-23T09:48:51.666Z,100064.12
2019-05-23T09:51:28.400Z,100064.12
2019-05-23T09:54:01.863Z,100052.53
2019-05-23T09:56:38.217Z,100043.05
2019-05-23T09:59:11.525Z,100043.05
2019-05-23T10:01:44.553Z,100048.53
2019-05-23T10:04:17.816Z,100051.11
2019-05-23T10:06:51.411Z,100062.27
2019-05-23T10:09:29.608Z,100057.78
2019-05-23T10:12:03.337Z,100052.92
2019-05-23T10:14:41.449Z,100046.88
2019-05-23T10:17:16.617Z,100048.19
2019-05-23T10:19:50.162Z,100044.55
2019-05-23T10:22:23.791Z,100041.45
2019-05-23T10:25:00.357Z,100039.72
2019-05-23T10:27:33.485Z,100040.84
2019-05-23T10:30:11.987Z,100035.52
2019-05-23T10:32:44.972Z,100038.47
2019-05-23T10:35:22.886Z,100035.14
2019-05-23T10:37:59.579Z,100028.84
2019-05-23T10:40:38.733Z,100026.73
2019-05-23T10:43:11.908Z,100032.48
2019-05-23T10:45:46.478Z,100034.22
2019-05-23T10:48:20.667Z,100022.24
2019-05-23T10:50:58.968Z,100023.35
2019-05-23T10:53:32.313Z,100019.27
2019-05-23T10:56:20.710Z,100021.38
2019-05-23T10:58:51.601Z,100014.26
2019-05-23T11:01:30.946Z,100017.38
2019-05-23T11:04:08.914Z,100011.16
2019-05-23T11:06:42.728Z,100011.98
2019-05-23T11:09:36.508Z,100004.93
2019-05-23T11:11:58.298Z,100007.37
2019-05-23T11:14:31.689Z,100004.83
2019-05-23T11:17:10.240Z,99993.05
2019-05-23T11:19:43.248Z,99993.26
2019-05-23T11:22:16.819Z,99993.36
2019-05-23T11:24:49.828Z,99995.83
2019-05-23T11:27:22.575Z,99991.42
2019-05-23T11:30:01.078Z,99989.92
2019-05-23T11:32:34.391Z,99982.97
2019-05-23T11:35:10.112Z,99983.06
2019-05-23T11:37:43.252Z,99983.45
2019-05-23T11:40:20.337Z,99982.31
2019-05-23T11:42:53.624Z,99973.23
2019-05-23T11:45:32.914Z,99982.59
2019-05-23T11:48:08.772Z,99974.30
2019-05-23T11:50:42.556Z,99970.44
2019-05-23T11:53:19.215Z,99962.86
2019-05-23T11:55:54.542Z,99966.09
2019-05-23T11:58:32.870Z,99963.30
2019-05-23T12:01:31.566Z,99964.40
2019-05-23T12:04:22.572Z,99962.91
2019-05-23T12:07:02.242Z,99963.61
2019-05-23T12:09:35.504Z,99956.34
2019-05-23T12:12:12.010Z,99963.47
2019-05-23T12:14:45.795Z,99956.13
2019-05-23T12:17:21.079Z,99955.86
2019-05-23T12:19:56.087Z,99950.52
2019-05-23T12:22:29.669Z,99953.06
2019-05-23T12:25:20.033Z,99956.94
2019-05-23T12:27:38.617Z,99952.33
2019-05-23T12:30:12.695Z,99956.48
2019-05-23T12:32:46.334Z,99954.92
2019-05-23T12:35:19.388Z,99955.36
2019-05-23T12:37:52.932Z,99947.95
2019-05-23T12:40:26.784Z,99943.62
2019-05-23T12:42:59.312Z,99945.77
2019-05-23T12:45:34.267Z,99942.77
2019-05-23T12:48:15.727Z,99941.72
2019-05-23T12:50:53.778Z,99931.13
2019-05-23T12:53:24.935Z,99924.78
2019-05-23T12:55:58.029Z,99936.55
2019-05-23T12:58:31.427Z,99932.01
2019-05-23T13:01:06.621Z,99930.94
2019-05-23T13:03:40.575Z,99929.38
2019-05-23T13:06:14.281Z,99926.53
2019-05-23T13:08:48.245Z,99922.56
2019-05-23T13:11:22.084Z,99917.72
2019-05-23T13:13:55.601Z,99915.06
2019-05-23T13:16:28.722Z,99910.53
2019-05-23T13:19:02.225Z,99906.85
2019-05-23T13:21:37.074Z,99911.54
2019-05-23T13:24:11.046Z,99911.68
2019-05-23T13:26:46.104Z,99908.69
2019-05-23T13:29:19.273Z,99911.70
2019-05-23T13:31:53.113Z,99907.48
2019-05-23T13:34:26.101Z,99902.65
2019-05-23T13:36:59.630Z,99901.07
2019-05-23T13:39:33.215Z,99907.55
2019-05-23T13:42:08.230Z,99898.66
2019-05-23T13:44:42.264Z,99891.08
2019-05-23T13:47:15.838Z,99893.34
2019-05-23T13:49:49.181Z,99896.55
2019-05-23T13:52:22.935Z,99895.45
2019-05-23T13:54:57.164Z,99895.48
2019-05-23T13:57:29.927Z,99894.55
2019-05-23T14:00:04.051Z,99895.08
2019-05-23T14:02:38.980Z,99890.89
2019-05-23T14:05:12.963Z,99890.27
2019-05-23T14:07:49.456Z,99889.00
2019-05-23T14:10:22.794Z,99880.98
2019-05-23T14:12:56.161Z,99885.92
2019-05-23T14:15:34.380Z,99878.81
2019-05-23T14:18:08.359Z,99878.37
2019-05-23T14:20:42.287Z,99876.63
2019-05-23T14:23:23.555Z,99874.13
2019-05-23T14:25:57.920Z,99875.12
2019-05-23T14:28:31.860Z,99871.39
2019-05-23T14:31:10.035Z,99867.47
2019-05-23T14:33:52.651Z,99864.82
2019-05-23T14:36:46.604Z,99873.00
2019-05-23T14:39:25.851Z,99865.16
2019-05-23T14:42:05.351Z,99859.64
2019-05-23T14:44:38.998Z,99864.11
2019-05-23T14:47:30.469Z,99864.90
2019-05-23T14:50:21.858Z,99868.70
2019-05-23T14:52:57.063Z,99857.06
2019-05-23T14:55:31.423Z,99862.36
2019-05-23T14:58:04.849Z,99864.78
2019-05-23T15:00:44.925Z,99862.93
2019-05-23T15:03:17.935Z,99868.00
2019-05-23T15:05:51.793Z,99861.06
2019-05-23T15:08:25.486Z,99861.72
2019-05-23T15:10:58.599Z,99851.03
2019-05-23T15:13:31.600Z,99860.98
2019-05-23T15:16:05.887Z,99852.29
2019-05-23T15:18:41.819Z,99853.42
2019-05-23T15:21:14.129Z,99846.64
2019-05-23T15:23:47.081Z,99844.48
2019-05-23T15:26:23.561Z,99840.78
2019-05-23T15:28:54.823Z,99838.78
2019-05-23T15:31:28.403Z,99834.91
2019-05-23T15:34:01.822Z,99838.80
2019-05-23T15:36:35.389Z,99833.91
2019-05-23T15:39:10.934Z,99831.44
2019-05-23T15:41:44.306Z,99827.25
2019-05-23T15:44:26.622Z,99824.14
2019-05-23T15:46:53.376Z,99823.34
2019-05-23T15:49:27.086Z,99829.87
2019-05-23T15:52:16.732Z,99818.81
2019-05-23T15:54:57.831Z,99821.05
2019-05-23T15:58:02.719Z,99824.27
2019-05-23T16:00:57.781Z,99819.25
2019-05-23T16:03:37.610Z,99816.34
2019-05-23T16:06:13.054Z,99806.21
2019-05-23T16:08:48.093Z,99804.00
2019-05-23T16:11:22.906Z,99791.73
2019-05-23T16:13:56.238Z,99796.72
2019-05-23T16:16:31.363Z,99800.55
2019-05-23T16:19:04.500Z,99801.78
2019-05-23T16:21:38.305Z,99801.78
2019-05-23T16:24:11.291Z,99791.56
2019-05-23T16:26:45.363Z,99791.56
2019-05-23T16:29:20.033Z,99787.16
2019-05-23T16:31:53.001Z,99787.16
2019-05-23T16:34:27.652Z,99793.05
2019-05-23T16:37:03.503Z,99795.63
2019-05-23T16:39:46.771Z,99790.05
2019-05-23T16:42:13.200Z,99790.05
2019-05-23T16:44:46.484Z,99800.81
2019-05-23T16:47:20.417Z,99789.67
2019-05-23T16:49:55.406Z,99789.67
2019-05-23T16:52:28.637Z,99790.50
2019-05-23T16:55:04.683Z,99788.02
2019-05-23T16:58:00.066Z,99786.89
2019-05-23T17:00:51.711Z,99786.39
2019-05-23T17:03:33.894Z,99786.39
2019-05-23T17:06:35.300Z,99787.97
2019-05-23T17:09:33.377Z,99787.97
2019-05-23T17:12:31.126Z,99781.84
2019-05-23T17:15:14.612Z,99781.25
2019-05-23T17:18:25.306Z,99785.23
2019-05-23T17:21:30.932Z,99780.30
2019-05-23T17:24:11.590Z,99779.63
2019-05-23T17:27:16.631Z,99774.38
2019-05-23T17:29:55.581Z,99777.38
2019-05-23T17:32:34.016Z,99774.03
2019-05-23T17:35:07.023Z,99777.91
2019-05-23T17:37:40.641Z,99774.36
2019-05-23T17:40:24.365Z,99764.59
2019-05-23T17:42:49.949Z,99772.37
2019-05-23T17:45:23.668Z,99771.11
2019-05-23T17:48:00.702Z,99769.80
2019-05-23T17:50:35.028Z,99768.58
2019-05-23T17:53:08.495Z,99764.44
2019-05-23T17:55:41.840Z,99765.28
2019-05-23T17:58:15.951Z,99762.03
2019-05-23T18:00:50.148Z,99760.98
2019-05-23T18:03:23.314Z,99765.55
2019-05-23T18:05:56.906Z,99759.33
2019-05-23T18:08:30.730Z,99759.27
2019-05-23T18:11:04.132Z,99751.00
2019-05-23T18:13:39.952Z,99751.31
2019-05-23T18:16:13.666Z,99757.35
2019-05-23T18:18:47.480Z,99753.89
2019-05-23T18:21:21.115Z,99749.56
2019-05-23T18:23:54.157Z,99758.66
2019-05-23T18:26:28.522Z,99753.07
2019-05-23T18:29:01.287Z,99755.86
2019-05-23T18:31:36.487Z,99748.06
2019-05-23T18:34:11.249Z,99754.09
2019-05-23T18:36:46.893Z,99747.44
2019-05-23T18:39:22.088Z,99751.06
2019-05-23T18:41:55.616Z,99754.16
2019-05-23T18:44:29.134Z,99749.47
2019-05-23T18:47:04.266Z,99750.22
2019-05-23T18:49:40.739Z,99749.55
2019-05-23T18:52:13.885Z,99745.44
2019-05-23T18:54:47.359Z,99741.73
2019-05-23T18:57:20.407Z,99739.19
2019-05-23T18:59:53.961Z,99743.72
2019-05-23T19:02:27.797Z,99744.52
2019-05-23T19:05:01.740Z,99744.65
2019-05-23T19:07:35.717Z,99739.99
2019-05-23T19:10:09.782Z,99740.78
2019-05-23T19:12:43.687Z,99742.16
2019-05-23T19:15:16.754Z,99740.19
2019-05-23T19:17:49.947Z,99741.41
2019-05-23T19:20:22.920Z,99741.45
2019-05-23T19:22:56.746Z,99747.56
2019-05-23T19:25:29.848Z,99745.20
2019-05-23T19:28:04.153Z,99743.70
2019-05-23T19:30:38.110Z,99742.92
2019-05-23T19:33:12.097Z,99747.15
2019-05-23T19:35:47.554Z,99746.51
2019-05-23T19:38:21.435Z,99749.37
2019-05-23T19:40:54.794Z,99752.09
2019-05-23T19:43:28.754Z,99746.89
2019-05-23T19:46:01.645Z,99752.80
2019-05-23T19:48:36.196Z,99749.42
2019-05-23T19:51:11.061Z,99750.08
2019-05-23T19:53:47.949Z,99752.74
2019-05-23T19:56:20.713Z,99750.86
2019-05-23T19:58:54.471Z,99750.67
2019-05-23T20:01:32.459Z,99753.17
2019-05-23T20:04:06.958Z,99748.19
2019-05-23T20:06:41.475Z,99754.06
2019-05-23T20:09:19.106Z,99749.44
2019-05-23T20:11:54.846Z,99745.11
2019-05-23T20:14:28.659Z,99742.64
2019-05-23T20:17:01.894Z,99748.23
2019-05-23T20:19:34.809Z,99745.18
2019-05-23T20:22:11.642Z,99743.61
2019-05-23T20:24:44.722Z,99741.89
2019-05-23T20:27:21.620Z,99747.89
2019-05-23T20:30:00.089Z,99743.23
2019-05-23T20:32:33.636Z,99750.36
2019-05-23T20:35:10.466Z,99754.33
2019-05-23T20:37:44.293Z,99750.73
2019-05-23T20:40:17.335Z,99754.50
2019-05-23T20:42:50.429Z,99754.56
2019-05-23T20:45:26.464Z,99752.44
2019-05-23T20:48:01.646Z,99753.19
2019-05-23T20:50:35.129Z,99759.49
2019-05-23T20:53:09.877Z,99758.56
2019-05-23T20:55:44.170Z,99751.88
2019-05-23T20:58:20.764Z,99751.03
2019-05-23T21:01:16.517Z,99753.55
2019-05-23T21:03:52.305Z,99756.84
2019-05-23T21:06:25.858Z,99753.48
2019-05-23T21:09:01.682Z,99748.61
2019-05-23T21:11:37.584Z,99750.77
2019-05-23T21:14:13.063Z,99749.08
2019-05-23T21:16:49.532Z,99750.39
2019-05-23T21:19:23.828Z,99749.95
2019-05-23T21:21:59.180Z,99751.08
2019-05-23T21:24:33.448Z,99743.05
2019-05-23T21:27:08.979Z,99739.14
2019-05-23T21:29:43.591Z,99745.48
2019-05-23T21:32:17.276Z,99743.53
2019-05-23T21:34:51.157Z,99746.30
2019-05-23T21:37:24.414Z,99748.47
2019-05-23T21:39:58.067Z,99746.16
2019-05-23T21:42:46.697Z,99747.27
2019-05-23T21:45:09.602Z,99746.17
2019-05-23T21:47:42.745Z,99746.04
2019-05-23T21:50:20.477Z,99748.84
2019-05-23T21:52:53.516Z,99746.06
2019-05-23T21:55:38.940Z,99749.30
2019-05-23T21:58:13.564Z,99749.50
2019-05-23T22:01:22.263Z,99747.34
2019-05-23T22:04:12.113Z,99747.90
2019-05-23T22:06:59.675Z,99743.99
2019-05-23T22:09:33.204Z,99750.84
2019-05-23T22:12:12.222Z,99755.34
2019-05-23T22:14:48.994Z,99755.53
2019-05-23T22:17:23.499Z,99753.59
2019-05-23T22:19:57.865Z,99752.59
2019-05-23T22:22:30.560Z,99751.64
2019-05-23T22:25:09.450Z,99751.44
2019-05-23T22:27:43.432Z,99743.05
2019-05-23T22:30:19.565Z,99743.44
2019-05-23T22:32:53.785Z,99742.49
2019-05-23T22:35:30.086Z,99741.72
2019-05-23T22:38:07.830Z,99734.69
2019-05-23T22:40:41.194Z,99736.04
2019-05-23T22:43:21.033Z,99738.02
2019-05-23T22:45:53.351Z,99736.45
2019-05-23T22:48:28.109Z,99739.77
2019-05-23T22:51:01.623Z,99732.73
2019-05-23T22:53:36.076Z,99733.05
2019-05-23T22:56:11.136Z,99734.81
2019-05-23T22:58:44.788Z,99742.22
2019-05-23T23:01:20.456Z,99740.86
2019-05-23T23:03:53.529Z,99747.95
2019-05-23T23:06:31.683Z,99745.17
2019-05-23T23:09:09.739Z,99748.29
2019-05-23T23:11:43.103Z,99746.28
2019-05-23T23:14:17.892Z,99745.24
2019-05-23T23:16:52.253Z,99743.20
2019-05-23T23:19:25.541Z,99739.47
2019-05-23T23:21:58.376Z,99742.58
2019-05-23T23:24:33.451Z,99737.69
2019-05-23T23:27:10.350Z,99741.21
2019-05-23T23:29:43.346Z,99734.98
2019-05-23T23:32:16.781Z,99734.04
2019-05-23T23:34:50.244Z,99736.23
2019-05-23T23:37:23.145Z,99735.84
2019-05-23T23:39:56.508Z,99732.13
2019-05-23T23:42:30.237Z,99734.45
2019-05-23T23:45:21.731Z,99724.11
2019-05-23T23:48:12.713Z,99717.28
2019-05-23T23:51:05.358Z,99723.14
2019-05-23T23:53:59.692Z,99721.02
2019-05-23T23:56:51.991Z,99713.42
2019-05-23T23:59:25.043Z,99719.26
